New Mingzhou66 — VRQE8 — position and weather

sailwx.info

Track history (hours):
 
Tides and Currents Weather Stations Pressure Air Temp Water Temp Dewpoint Dewpoint Depression Visibility Wind Speed Wind Dir Waves Ship Positions

New Mingzhou66

Last reported at 2017-Oct-19 15:59 UTC. Time now 2017-Oct-19 20:06 UTC.
Position N 34°55' E 139°23'.

Length 148 m; draft 6.9 m.

Type: Cargo ship. MMSI: 477439900.

Date/timePositionNaut miles runAvg speedWind from/ knotsBaromVisibWave heightAir tempDewpointWater temp
2017-Oct-19 15:59N 34°55' E 139°23'714.9
2017-Oct-19 15:30N 34°59' E 139°30'815.7
2017-Oct-19 15:00N 35°04' E 139°38'816.8
2017-Oct-19 14:30N 35°10' E 139°45'612.9
2017-Oct-19 14:00N 35°17' E 139°45'713.6
2017-Oct-19 13:31N 35°23' E 139°42'816.5
2017-Oct-19 13:01N 35°29' E 139°50'712.9
2017-Oct-19 12:30N 35°35' E 139°48'2 5.0
2017-Oct-19 12:00N 35°37' E 139°46'0 0.0
2017-Oct-19 10:48N 35°37' E 139°46'0 0.0
2017-Oct-19 10:12N 35°37' E 139°46'0 0.0
2017-Oct-19 10:00N 35°37' E 139°46'0 0.0
2017-Oct-19 09:27N 35°37' E 139°46'0 0.0
2017-Oct-19 08:21N 35°37' E 139°46'0 0.0
2017-Oct-19 07:57N 35°37' E 139°46'0 0.0
2017-Oct-19 07:12N 35°37' E 139°46'0 0.0
2017-Oct-19 06:57N 35°37' E 139°46'0 0.0
2017-Oct-19 06:27N 35°37' E 139°46'0 0.0
2017-Oct-19 05:51N 35°37' E 139°46'0 0.0
2017-Oct-19 05:27N 35°37' E 139°46'0 0.0
2017-Oct-19 05:00N 35°37' E 139°46'0 0.0
2017-Oct-19 04:15N 35°37' E 139°46'0 0.0
2017-Oct-19 03:54N 35°37' E 139°46'0 0.0
2017-Oct-19 03:27N 35°37' E 139°46'0 0.0
2017-Oct-19 02:57N 35°37' E 139°46'0 0.0
2017-Oct-19 02:30N 35°37' E 139°46'0 0.0
2017-Oct-19 01:57N 35°37' E 139°46'0 0.0
2017-Oct-19 00:39N 35°37' E 139°46'0 0.0
2017-Oct-19 00:30N 35°37' E 139°46'0 0.0
2017-Oct-18 23:51N 35°37' E 139°46'0 0.0
2017-Oct-18 23:24N 35°37' E 139°46'0 0.0
2017-Oct-18 22:45N 35°37' E 139°46'0 0.0
2017-Oct-18 22:28N 35°37' E 139°46'2 3.2
2017-Oct-18 22:00N 35°36' E 139°47'4 2.9
2017-Oct-18 20:46N 35°34' E 139°51'0 0.0
2017-Oct-18 20:22N 35°34' E 139°51'0 0.0
2017-Oct-18 19:58N 35°34' E 139°51'0 0.0
2017-Oct-18 18:07N 35°34' E 139°51'0 0.0
2017-Oct-18 16:01N 35°34' E 139°51'0 0.0
2017-Oct-18 14:55N 35°34' E 139°51'0 0.1
2017-Oct-18 13:58N 35°34' E 139°51'2 4.0
2017-Oct-18 13:30N 35°32' E 139°52'612.6
2017-Oct-18 13:00N 35°26' E 139°49'713.5
2017-Oct-18 12:31N 35°20' E 139°45'612.5
2017-Oct-18 12:01N 35°14' E 139°47'714.6
2017-Oct-18 11:31N 35°07' E 139°46'815.2
2017-Oct-18 11:00N 35°01' E 139°40'815.8
2017-Oct-18 10:30N 34°57' E 139°32'23212.2
2017-Oct-17 15:28N 34°01' E 134°58'816.9
2017-Oct-17 14:59N 34°09' E 134°58'917.3
2017-Oct-17 14:29N 34°18' E 134°59'816.0
2017-Oct-17 14:01N 34°24' E 135°04'816.6
2017-Oct-17 13:30N 34°30' E 135°11'815.4
2017-Oct-17 13:01N 34°37' E 135°15'4 7.4
2017-Oct-17 12:30N 34°41' E 135°16'0 0.0
2017-Oct-17 12:00N 34°41' E 135°16'0 0.0
2017-Oct-17 11:30N 34°41' E 135°16'0 0.0
2017-Oct-17 11:00N 34°41' E 135°16'0 0.0
2017-Oct-17 10:30N 34°41' E 135°16'0 0.0
2017-Oct-17 10:00N 34°41' E 135°16'0 0.0
2017-Oct-17 09:30N 34°41' E 135°16'0 0.0
2017-Oct-17 09:00N 34°41' E 135°16'0 0.0
2017-Oct-17 08:30N 34°41' E 135°16'0 0.0
2017-Oct-17 08:00N 34°41' E 135°16'0 0.0
2017-Oct-17 07:30N 34°41' E 135°16'0 0.0
2017-Oct-17 07:00N 34°41' E 135°16'1 1.1
2017-Oct-17 06:30N 34°40' E 135°15'3 6.1
2017-Oct-17 06:00N 34°38' E 135°18'611.0
2017-Oct-17 05:29N 34°39' E 135°24'1 2.3
2017-Oct-17 05:00N 34°39' E 135°26'0 0.0
2017-Oct-17 04:28N 34°39' E 135°26'0 0.0
2017-Oct-17 03:52N 34°39' E 135°26'0 0.0
2017-Oct-17 03:16N 34°39' E 135°26'0 0.0
2017-Oct-17 02:58N 34°39' E 135°26'0 0.0
2017-Oct-17 02:28N 34°39' E 135°26'0 0.0
2017-Oct-17 01:58N 34°39' E 135°26'0 0.0
2017-Oct-17 01:28N 34°39' E 135°26'0 0.0
2017-Oct-17 00:58N 34°39' E 135°26'0 0.0
2017-Oct-17 00:10N 34°39' E 135°26'0 0.0
2017-Oct-16 23:58N 34°39' E 135°26'0 0.0
2017-Oct-16 23:28N 34°39' E 135°26'0 0.0
2017-Oct-16 22:52N 34°39' E 135°26'0 0.0
2017-Oct-16 22:22N 34°39' E 135°26'0 0.0
2017-Oct-16 21:58N 34°39' E 135°26'0 0.0
2017-Oct-16 21:28N 34°39' E 135°26'0 0.0
2017-Oct-16 20:58N 34°39' E 135°26'0 0.0
2017-Oct-16 20:28N 34°39' E 135°26'0 0.0
2017-Oct-16 19:58N 34°39' E 135°26'0 0.0
2017-Oct-16 19:28N 34°39' E 135°26'0 0.0
2017-Oct-16 18:58N 34°39' E 135°26'0 0.0
2017-Oct-16 18:28N 34°39' E 135°26'0 0.0
2017-Oct-16 17:58N 34°39' E 135°26'0 0.0
2017-Oct-16 16:58N 34°39' E 135°26'0 0.0
2017-Oct-16 16:28N 34°39' E 135°26'0 0.0
2017-Oct-16 15:58N 34°39' E 135°26'0 0.0
2017-Oct-16 15:14N 34°39' E 135°26'1 2.6
2017-Oct-16 15:00N 34°39' E 135°25'9 8.6
2017-Oct-16 14:00N 34°36' E 135°15'714.8
2017-Oct-16 13:30N 34°35' E 135°06'815.9
2017-Oct-16 13:00N 34°36' E 134°57'815.7
2017-Oct-16 12:28N 34°33' E 134°48'66112.8
2017-Oct-14 08:42N 30°51' E 122°27'311.5
2017-Oct-14 08:24N 30°50' E 122°24'512.7
2017-Oct-14 07:58N 30°46' E 122°19'713.4
2017-Oct-14 07:28N 30°40' E 122°15'711.5
2017-Oct-14 06:52N 30°34' E 122°12'2 4.7
2017-Oct-14 06:30N 30°32' E 122°11'911.0
2017-Oct-14 05:41N 30°28' E 122°02'  
Track history (hours):
 
Tides and Currents Weather Stations Pressure Air Temp Water Temp Dewpoint Dewpoint Depression Visibility Wind Speed Wind Dir Waves Ship Positions

New Mingzhou66

Last reported at 2017-Oct-19 15:59 UTC. Time now 2017-Oct-19 20:06 UTC.
Position N 34°55' E 139°23'.

Length 148 m; draft 6.9 m.

Type: Cargo ship. MMSI: 477439900.

Date/timePositionNaut miles runAvg speedWind from/ knotsBaromVisibWave heightAir tempDewpointWater temp
2017-Oct-19 15:59N 34°55' E 139°23'714.9
2017-Oct-19 15:30N 34°59' E 139°30'815.7
2017-Oct-19 15:00N 35°04' E 139°38'816.8
2017-Oct-19 14:30N 35°10' E 139°45'612.9
2017-Oct-19 14:00N 35°17' E 139°45'713.6
2017-Oct-19 13:31N 35°23' E 139°42'816.5
2017-Oct-19 13:01N 35°29' E 139°50'712.9
2017-Oct-19 12:30N 35°35' E 139°48'2 5.0
2017-Oct-19 12:00N 35°37' E 139°46'0 0.0
2017-Oct-19 10:48N 35°37' E 139°46'0 0.0
2017-Oct-19 10:12N 35°37' E 139°46'0 0.0
2017-Oct-19 10:00N 35°37' E 139°46'0 0.0
2017-Oct-19 09:27N 35°37' E 139°46'0 0.0
2017-Oct-19 08:21N 35°37' E 139°46'0 0.0
2017-Oct-19 07:57N 35°37' E 139°46'0 0.0
2017-Oct-19 07:12N 35°37' E 139°46'0 0.0
2017-Oct-19 06:57N 35°37' E 139°46'0 0.0
2017-Oct-19 06:27N 35°37' E 139°46'0 0.0
2017-Oct-19 05:51N 35°37' E 139°46'0 0.0
2017-Oct-19 05:27N 35°37' E 139°46'0 0.0
2017-Oct-19 05:00N 35°37' E 139°46'0 0.0
2017-Oct-19 04:15N 35°37' E 139°46'0 0.0
2017-Oct-19 03:54N 35°37' E 139°46'0 0.0
2017-Oct-19 03:27N 35°37' E 139°46'0 0.0
2017-Oct-19 02:57N 35°37' E 139°46'0 0.0
2017-Oct-19 02:30N 35°37' E 139°46'0 0.0
2017-Oct-19 01:57N 35°37' E 139°46'0 0.0
2017-Oct-19 00:39N 35°37' E 139°46'0 0.0
2017-Oct-19 00:30N 35°37' E 139°46'0 0.0
2017-Oct-18 23:51N 35°37' E 139°46'0 0.0
2017-Oct-18 23:24N 35°37' E 139°46'0 0.0
2017-Oct-18 22:45N 35°37' E 139°46'0 0.0
2017-Oct-18 22:28N 35°37' E 139°46'2 3.2
2017-Oct-18 22:00N 35°36' E 139°47'4 2.9
2017-Oct-18 20:46N 35°34' E 139°51'0 0.0
2017-Oct-18 20:22N 35°34' E 139°51'0 0.0
2017-Oct-18 19:58N 35°34' E 139°51'0 0.0
2017-Oct-18 18:07N 35°34' E 139°51'0 0.0
2017-Oct-18 16:01N 35°34' E 139°51'0 0.0
2017-Oct-18 14:55N 35°34' E 139°51'0 0.1
2017-Oct-18 13:58N 35°34' E 139°51'2 4.0
2017-Oct-18 13:30N 35°32' E 139°52'612.6
2017-Oct-18 13:00N 35°26' E 139°49'713.5
2017-Oct-18 12:31N 35°20' E 139°45'612.5
2017-Oct-18 12:01N 35°14' E 139°47'714.6
2017-Oct-18 11:31N 35°07' E 139°46'815.2
2017-Oct-18 11:00N 35°01' E 139°40'815.8
2017-Oct-18 10:30N 34°57' E 139°32'23212.2
2017-Oct-17 15:28N 34°01' E 134°58'816.9
2017-Oct-17 14:59N 34°09' E 134°58'917.3
2017-Oct-17 14:29N 34°18' E 134°59'816.0
2017-Oct-17 14:01N 34°24' E 135°04'816.6
2017-Oct-17 13:30N 34°30' E 135°11'815.4
2017-Oct-17 13:01N 34°37' E 135°15'4 7.4
2017-Oct-17 12:30N 34°41' E 135°16'0 0.0
2017-Oct-17 12:00N 34°41' E 135°16'0 0.0
2017-Oct-17 11:30N 34°41' E 135°16'0 0.0
2017-Oct-17 11:00N 34°41' E 135°16'0 0.0
2017-Oct-17 10:30N 34°41' E 135°16'0 0.0
2017-Oct-17 10:00N 34°41' E 135°16'0 0.0
2017-Oct-17 09:30N 34°41' E 135°16'0 0.0
2017-Oct-17 09:00N 34°41' E 135°16'0 0.0
2017-Oct-17 08:30N 34°41' E 135°16'0 0.0
2017-Oct-17 08:00N 34°41' E 135°16'0 0.0
2017-Oct-17 07:30N 34°41' E 135°16'0 0.0
2017-Oct-17 07:00N 34°41' E 135°16'1 1.1
2017-Oct-17 06:30N 34°40' E 135°15'3 6.1
2017-Oct-17 06:00N 34°38' E 135°18'611.0
2017-Oct-17 05:29N 34°39' E 135°24'1 2.3
2017-Oct-17 05:00N 34°39' E 135°26'0 0.0
2017-Oct-17 04:28N 34°39' E 135°26'0 0.0
2017-Oct-17 03:52N 34°39' E 135°26'0 0.0
2017-Oct-17 03:16N 34°39' E 135°26'0 0.0
2017-Oct-17 02:58N 34°39' E 135°26'0 0.0
2017-Oct-17 02:28N 34°39' E 135°26'0 0.0
2017-Oct-17 01:58N 34°39' E 135°26'0 0.0
2017-Oct-17 01:28N 34°39' E 135°26'0 0.0
2017-Oct-17 00:58N 34°39' E 135°26'0 0.0
2017-Oct-17 00:10N 34°39' E 135°26'0 0.0
2017-Oct-16 23:58N 34°39' E 135°26'0 0.0
2017-Oct-16 23:28N 34°39' E 135°26'0 0.0
2017-Oct-16 22:52N 34°39' E 135°26'0 0.0
2017-Oct-16 22:22N 34°39' E 135°26'0 0.0
2017-Oct-16 21:58N 34°39' E 135°26'0 0.0
2017-Oct-16 21:28N 34°39' E 135°26'0 0.0
2017-Oct-16 20:58N 34°39' E 135°26'0 0.0
2017-Oct-16 20:28N 34°39' E 135°26'0 0.0
2017-Oct-16 19:58N 34°39' E 135°26'0 0.0
2017-Oct-16 19:28N 34°39' E 135°26'0 0.0
2017-Oct-16 18:58N 34°39' E 135°26'0 0.0
2017-Oct-16 18:28N 34°39' E 135°26'0 0.0
2017-Oct-16 17:58N 34°39' E 135°26'0 0.0
2017-Oct-16 16:58N 34°39' E 135°26'0 0.0
2017-Oct-16 16:28N 34°39' E 135°26'0 0.0
2017-Oct-16 15:58N 34°39' E 135°26'0 0.0
2017-Oct-16 15:14N 34°39' E 135°26'1 2.6
2017-Oct-16 15:00N 34°39' E 135°25'9 8.6
2017-Oct-16 14:00N 34°36' E 135°15'714.8
2017-Oct-16 13:30N 34°35' E 135°06'815.9
2017-Oct-16 13:00N 34°36' E 134°57'815.7
2017-Oct-16 12:28N 34°33' E 134°48'66112.8
2017-Oct-14 08:42N 30°51' E 122°27'311.5
2017-Oct-14 08:24N 30°50' E 122°24'512.7
2017-Oct-14 07:58N 30°46' E 122°19'713.4
2017-Oct-14 07:28N 30°40' E 122°15'711.5
2017-Oct-14 06:52N 30°34' E 122°12'2 4.7
2017-Oct-14 06:30N 30°32' E 122°11'911.0
2017-Oct-14 05:41N 30°28' E 122°02'  

Dump ship's entire track history